This is the latest recevied weather packets stored in our database for station/object W4SMH. If no packets are shown the sender has not sent any weather packets the latest 10 day(s).
| Time | Temp. | Humidity | Pressure | Rain* | Wind** | Luminosity | Snow |
|---|---|---|---|---|---|---|---|
| 1777536469 | 2.22° C | 91% | 1014.7 hPa | 0 mm | - | 0 W/m² | - |
| 1777535363 | 2.78° C | 91% | 1014.7 hPa | 0 mm | - | 0 W/m² | - |
| 1777535140 | 2.78° C | 91% | 1014.7 hPa | 0 mm | - | 0 W/m² | - |
| 1777534932 | 2.78° C | 91% | 1014.6 hPa | 0 mm | - | 0 W/m² | - |
| 1777534909 | 11.67° C | 84% | 1003.3 hPa | 0 mm | - | 0 W/m² | - |
| 1777534905 | 11.67° C | 83% | 1003.2 hPa | 0 mm | - | 0 W/m² | - |
| 1777534753 | 2.78° C | 91% | 1014.7 hPa | 0 mm | - | 0 W/m² | - |
| 1777534638 | 2.78° C | 91% | 1014.6 hPa | 0 mm | - | 0 W/m² | - |
| 1777534391 | 2.78° C | 91% | 1014.5 hPa | 0 mm | - | 0 W/m² | - |
| 1777534338 | 3.33° C | 91% | 1014.6 hPa | 0 mm | - | 0 W/m² | - |
| 1777534312 | 3.33° C | 91% | 1014.6 hPa | 0 mm | - | 0 W/m² | - |
| 1777533828 | 3.33° C | 91% | 1014.6 hPa | 0 mm | - | 0 W/m² | - |
| 1777533156 | 3.33° C | 91% | 1014.6 hPa | 0 mm | - | 0 W/m² | - |
| 1777532571 | 3.33° C | 91% | 1014.8 hPa | 0 mm | - | 0 W/m² | - |
| 1777531738 | 12.78° C | 82% | 1002.2 hPa | 0 mm | - | 0 W/m² | - |
| 1777531733 | 13.33° C | 82% | 1002 hPa | 0 mm | - | 0 W/m² | - |
| 1777531711 | 3.33° C | 91% | 1014.7 hPa | 0 mm | - | 0 W/m² | - |
| 1777531678 | 3.33° C | 91% | 1014.8 hPa | 0 mm | - | 0 W/m² | - |
| 1777531652 | 3.33° C | 91% | 1014.7 hPa | 0 mm | - | 0 W/m² | - |
| 1777531397 | 3.33° C | 91% | 1014.8 hPa | 0 mm | - | 0 W/m² | - |
| 1777531253 | 3.33° C | 91% | 1014.8 hPa | 0 mm | - | 0 W/m² | - |
| 1777531222 | 3.33° C | 91% | 1014.7 hPa | 0 mm | - | 0 W/m² | - |
| 1777530695 | 3.33° C | 91% | 1014.9 hPa | 0 mm | - | 0 W/m² | - |
| 1777530660 | 3.33° C | 91% | 1014.8 hPa | 0 mm | - | 0 W/m² | - |
| 1777529643 | 3.89° C | 90% | 1014.9 hPa | 0 mm | - | 0 W/m² | - |
* Rain latest hour (hover to see other rain measurements)
** Current wind speed in m/s (hover to see current wind gust speed)